sensor_id;sensor_type;location;lat;lon;timestamp;P1;durP1;ratioP1;P2;durP2;ratioP2
1414;SDS011;702;49.466;11.086;2022-08-19T00:00:39;38.10;;;34.40;;
1414;SDS011;702;49.466;11.086;2022-08-19T00:03:06;36.90;;;33.37;;
1414;SDS011;702;49.466;11.086;2022-08-19T00:05:34;33.57;;;30.63;;
1414;SDS011;702;49.466;11.086;2022-08-19T00:08:01;34.77;;;31.67;;
1414;SDS011;702;49.466;11.086;2022-08-19T00:10:29;33.37;;;30.37;;
1414;SDS011;702;49.466;11.086;2022-08-19T00:12:58;34.80;;;31.83;;
1414;SDS011;702;49.466;11.086;2022-08-19T00:15:25;34.57;;;31.17;;
1414;SDS011;702;49.466;11.086;2022-08-19T00:17:52;33.67;;;30.67;;
1414;SDS011;702;49.466;11.086;2022-08-19T00:20:21;33.27;;;30.20;;
1414;SDS011;702;49.466;11.086;2022-08-19T00:22:48;34.60;;;31.57;;
1414;SDS011;702;49.466;11.086;2022-08-19T00:25:17;33.70;;;30.80;;
1414;SDS011;702;49.466;11.086;2022-08-19T00:27:44;34.30;;;31.00;;
1414;SDS011;702;49.466;11.086;2022-08-19T00:30:13;35.40;;;32.30;;
1414;SDS011;702;49.466;11.086;2022-08-19T00:32:41;35.87;;;32.40;;
1414;SDS011;702;49.466;11.086;2022-08-19T00:35:09;37.50;;;34.10;;
1414;SDS011;702;49.466;11.086;2022-08-19T00:37:37;39.30;;;35.70;;
1414;SDS011;702;49.466;11.086;2022-08-19T00:40:08;39.83;;;36.30;;
1414;SDS011;702;49.466;11.086;2022-08-19T00:42:38;37.10;;;33.60;;
1414;SDS011;702;49.466;11.086;2022-08-19T00:45:08;38.00;;;34.50;;
1414;SDS011;702;49.466;11.086;2022-08-19T00:47:42;39.03;;;35.40;;
1414;SDS011;702;49.466;11.086;2022-08-19T00:50:10;38.50;;;35.07;;
1414;SDS011;702;49.466;11.086;2022-08-19T00:52:41;36.20;;;32.77;;
1414;SDS011;702;49.466;11.086;2022-08-19T00:55:12;36.90;;;33.70;;
1414;SDS011;702;49.466;11.086;2022-08-19T00:57:46;35.83;;;32.67;;
1414;SDS011;702;49.466;11.086;2022-08-19T01:00:21;35.07;;;32.07;;
1414;SDS011;702;49.466;11.086;2022-08-19T01:02:51;35.07;;;32.03;;
1414;SDS011;702;49.466;11.086;2022-08-19T01:05:20;37.20;;;33.67;;
1414;SDS011;702;49.466;11.086;2022-08-19T01:07:50;36.27;;;32.50;;
1414;SDS011;702;49.466;11.086;2022-08-19T01:10:19;34.30;;;31.13;;
1414;SDS011;702;49.466;11.086;2022-08-19T01:12:50;35.40;;;32.30;;
1414;SDS011;702;49.466;11.086;2022-08-19T01:15:19;35.57;;;32.37;;
1414;SDS011;702;49.466;11.086;2022-08-19T01:17:53;35.97;;;32.70;;
1414;SDS011;702;49.466;11.086;2022-08-19T01:20:23;34.67;;;31.67;;
1414;SDS011;702;49.466;11.086;2022-08-19T01:22:53;34.20;;;31.30;;
1414;SDS011;702;49.466;11.086;2022-08-19T01:25:24;35.57;;;32.47;;
1414;SDS011;702;49.466;11.086;2022-08-19T01:27:54;35.20;;;31.93;;
1414;SDS011;702;49.466;11.086;2022-08-19T01:30:24;34.97;;;31.43;;
1414;SDS011;702;49.466;11.086;2022-08-19T01:32:56;36.20;;;32.90;;
1414;SDS011;702;49.466;11.086;2022-08-19T01:35:26;34.80;;;31.60;;
1414;SDS011;702;49.466;11.086;2022-08-19T01:38:00;35.60;;;32.57;;
1414;SDS011;702;49.466;11.086;2022-08-19T01:40:32;35.67;;;32.40;;
1414;SDS011;702;49.466;11.086;2022-08-19T01:43:02;36.27;;;32.97;;
1414;SDS011;702;49.466;11.086;2022-08-19T01:45:32;36.77;;;33.33;;
1414;SDS011;702;49.466;11.086;2022-08-19T01:48:01;37.77;;;34.23;;
1414;SDS011;702;49.466;11.086;2022-08-19T01:50:30;34.87;;;31.87;;
1414;SDS011;702;49.466;11.086;2022-08-19T01:53:01;36.10;;;33.00;;
1414;SDS011;702;49.466;11.086;2022-08-19T01:55:33;38.03;;;34.63;;
1414;SDS011;702;49.466;11.086;2022-08-19T01:58:02;36.33;;;33.20;;
1414;SDS011;702;49.466;11.086;2022-08-19T02:00:32;36.23;;;32.93;;
1414;SDS011;702;49.466;11.086;2022-08-19T02:02:59;36.33;;;33.10;;
1414;SDS011;702;49.466;11.086;2022-08-19T02:05:26;34.20;;;30.87;;
1414;SDS011;702;49.466;11.086;2022-08-19T02:07:54;36.50;;;33.20;;
1414;SDS011;702;49.466;11.086;2022-08-19T02:10:24;37.60;;;34.20;;
1414;SDS011;702;49.466;11.086;2022-08-19T02:12:51;39.40;;;35.80;;
1414;SDS011;702;49.466;11.086;2022-08-19T02:15:19;37.93;;;34.53;;
1414;SDS011;702;49.466;11.086;2022-08-19T02:17:47;39.97;;;36.30;;
1414;SDS011;702;49.466;11.086;2022-08-19T02:20:15;38.00;;;34.47;;
1414;SDS011;702;49.466;11.086;2022-08-19T02:22:42;37.80;;;34.10;;
1414;SDS011;702;49.466;11.086;2022-08-19T02:25:10;37.57;;;33.97;;
1414;SDS011;702;49.466;11.086;2022-08-19T02:27:40;35.60;;;32.50;;
1414;SDS011;702;49.466;11.086;2022-08-19T02:30:10;36.80;;;33.40;;
1414;SDS011;702;49.466;11.086;2022-08-19T02:32:42;36.77;;;33.37;;
1414;SDS011;702;49.466;11.086;2022-08-19T02:35:09;38.60;;;34.80;;
1414;SDS011;702;49.466;11.086;2022-08-19T02:37:37;38.70;;;35.00;;
1414;SDS011;702;49.466;11.086;2022-08-19T02:40:22;40.90;;;36.63;;
1414;SDS011;702;49.466;11.086;2022-08-19T02:42:51;39.27;;;35.37;;
1414;SDS011;702;49.466;11.086;2022-08-19T02:45:18;38.90;;;35.30;;
1414;SDS011;702;49.466;11.086;2022-08-19T02:47:46;36.63;;;32.93;;
1414;SDS011;702;49.466;11.086;2022-08-19T02:50:13;37.47;;;34.10;;
1414;SDS011;702;49.466;11.086;2022-08-19T02:52:40;39.27;;;35.57;;
1414;SDS011;702;49.466;11.086;2022-08-19T02:55:08;40.87;;;36.97;;
1414;SDS011;702;49.466;11.086;2022-08-19T02:57:35;38.87;;;35.07;;
1414;SDS011;702;49.466;11.086;2022-08-19T03:00:05;39.87;;;35.80;;
1414;SDS011;702;49.466;11.086;2022-08-19T03:02:36;37.73;;;34.33;;
1414;SDS011;702;49.466;11.086;2022-08-19T03:05:04;37.63;;;34.10;;
1414;SDS011;702;49.466;11.086;2022-08-19T03:07:35;40.47;;;36.50;;
1414;SDS011;702;49.466;11.086;2022-08-19T03:10:02;39.93;;;36.07;;
1414;SDS011;702;49.466;11.086;2022-08-19T03:12:31;39.23;;;35.23;;
1414;SDS011;702;49.466;11.086;2022-08-19T03:15:02;38.63;;;34.70;;
1414;SDS011;702;49.466;11.086;2022-08-19T03:17:33;41.83;;;37.83;;
1414;SDS011;702;49.466;11.086;2022-08-19T03:20:01;39.87;;;36.07;;
1414;SDS011;702;49.466;11.086;2022-08-19T03:22:29;39.10;;;35.30;;
1414;SDS011;702;49.466;11.086;2022-08-19T03:24:56;41.03;;;37.03;;
1414;SDS011;702;49.466;11.086;2022-08-19T03:27:24;40.17;;;36.20;;
1414;SDS011;702;49.466;11.086;2022-08-19T03:29:52;40.27;;;36.60;;
1414;SDS011;702;49.466;11.086;2022-08-19T03:32:20;40.93;;;36.90;;
1414;SDS011;702;49.466;11.086;2022-08-19T03:34:48;40.93;;;36.83;;
1414;SDS011;702;49.466;11.086;2022-08-19T03:37:16;38.53;;;34.93;;
1414;SDS011;702;49.466;11.086;2022-08-19T03:39:43;38.43;;;34.63;;
1414;SDS011;702;49.466;11.086;2022-08-19T03:42:11;37.43;;;33.93;;
1414;SDS011;702;49.466;11.086;2022-08-19T03:44:38;39.67;;;35.97;;
1414;SDS011;702;49.466;11.086;2022-08-19T03:47:07;37.80;;;34.17;;
1414;SDS011;702;49.466;11.086;2022-08-19T03:49:36;39.70;;;35.87;;
1414;SDS011;702;49.466;11.086;2022-08-19T03:52:03;38.80;;;34.97;;
1414;SDS011;702;49.466;11.086;2022-08-19T03:54:32;42.00;;;37.80;;
1414;SDS011;702;49.466;11.086;2022-08-19T03:57:00;42.27;;;37.97;;
1414;SDS011;702;49.466;11.086;2022-08-19T03:59:29;42.73;;;38.43;;
1414;SDS011;702;49.466;11.086;2022-08-19T04:01:59;40.93;;;36.83;;
1414;SDS011;702;49.466;11.086;2022-08-19T04:04:29;42.43;;;38.27;;
1414;SDS011;702;49.466;11.086;2022-08-19T04:06:57;44.00;;;39.63;;
1414;SDS011;702;49.466;11.086;2022-08-19T04:09:25;41.67;;;37.47;;
1414;SDS011;702;49.466;11.086;2022-08-19T04:11:53;42.77;;;38.57;;
1414;SDS011;702;49.466;11.086;2022-08-19T04:14:24;44.30;;;39.70;;
1414;SDS011;702;49.466;11.086;2022-08-19T04:16:55;40.73;;;36.70;;
1414;SDS011;702;49.466;11.086;2022-08-19T04:19:23;40.80;;;36.50;;
1414;SDS011;702;49.466;11.086;2022-08-19T04:21:53;41.43;;;37.17;;
1414;SDS011;702;49.466;11.086;2022-08-19T04:24:22;41.73;;;37.37;;
1414;SDS011;702;49.466;11.086;2022-08-19T04:26:50;43.40;;;39.10;;
1414;SDS011;702;49.466;11.086;2022-08-19T04:29:18;40.80;;;36.70;;
1414;SDS011;702;49.466;11.086;2022-08-19T04:31:50;41.27;;;37.13;;
1414;SDS011;702;49.466;11.086;2022-08-19T04:34:20;39.50;;;35.50;;
1414;SDS011;702;49.466;11.086;2022-08-19T04:36:50;41.77;;;37.50;;
1414;SDS011;702;49.466;11.086;2022-08-19T04:39:20;38.63;;;34.70;;
1414;SDS011;702;49.466;11.086;2022-08-19T04:42:11;40.67;;;36.40;;
1414;SDS011;702;49.466;11.086;2022-08-19T04:44:57;40.20;;;35.90;;
1414;SDS011;702;49.466;11.086;2022-08-19T04:47:25;40.93;;;36.80;;
1414;SDS011;702;49.466;11.086;2022-08-19T04:49:52;41.33;;;37.33;;
1414;SDS011;702;49.466;11.086;2022-08-19T04:52:19;40.30;;;36.30;;
1414;SDS011;702;49.466;11.086;2022-08-19T04:54:48;40.03;;;35.87;;
1414;SDS011;702;49.466;11.086;2022-08-19T04:57:15;40.57;;;36.20;;
1414;SDS011;702;49.466;11.086;2022-08-19T04:59:43;39.30;;;35.40;;
1414;SDS011;702;49.466;11.086;2022-08-19T05:02:10;39.17;;;35.30;;
1414;SDS011;702;49.466;11.086;2022-08-19T05:04:38;39.77;;;35.67;;
1414;SDS011;702;49.466;11.086;2022-08-19T05:07:05;37.77;;;34.03;;
1414;SDS011;702;49.466;11.086;2022-08-19T05:09:34;39.07;;;35.27;;
1414;SDS011;702;49.466;11.086;2022-08-19T05:12:03;37.10;;;33.60;;
1414;SDS011;702;49.466;11.086;2022-08-19T05:14:31;37.03;;;33.40;;
1414;SDS011;702;49.466;11.086;2022-08-19T05:17:00;36.07;;;32.67;;
1414;SDS011;702;49.466;11.086;2022-08-19T05:19:27;35.27;;;31.97;;
1414;SDS011;702;49.466;11.086;2022-08-19T05:22:12;35.57;;;32.13;;
1414;SDS011;702;49.466;11.086;2022-08-19T05:25:00;36.63;;;33.13;;
1414;SDS011;702;49.466;11.086;2022-08-19T05:27:34;34.50;;;31.40;;
1414;SDS011;702;49.466;11.086;2022-08-19T05:30:02;35.07;;;31.77;;
1414;SDS011;702;49.466;11.086;2022-08-19T05:32:32;35.00;;;31.73;;
1414;SDS011;702;49.466;11.086;2022-08-19T05:34:59;35.23;;;31.90;;
1414;SDS011;702;49.466;11.086;2022-08-19T05:37:26;34.13;;;31.13;;
1414;SDS011;702;49.466;11.086;2022-08-19T05:39:54;35.00;;;31.83;;
1414;SDS011;702;49.466;11.086;2022-08-19T05:42:21;33.00;;;29.50;;
1414;SDS011;702;49.466;11.086;2022-08-19T05:44:51;34.30;;;31.30;;
1414;SDS011;702;49.466;11.086;2022-08-19T05:47:18;33.30;;;30.30;;
1414;SDS011;702;49.466;11.086;2022-08-19T05:49:46;32.77;;;29.67;;
1414;SDS011;702;49.466;11.086;2022-08-19T05:52:16;33.10;;;30.10;;
1414;SDS011;702;49.466;11.086;2022-08-19T05:54:44;32.53;;;29.33;;
1414;SDS011;702;49.466;11.086;2022-08-19T05:57:13;33.67;;;30.57;;
1414;SDS011;702;49.466;11.086;2022-08-19T05:59:41;31.20;;;28.27;;
1414;SDS011;702;49.466;11.086;2022-08-19T06:02:10;31.60;;;28.80;;
1414;SDS011;702;49.466;11.086;2022-08-19T06:04:38;30.97;;;28.07;;
1414;SDS011;702;49.466;11.086;2022-08-19T06:07:07;31.30;;;28.30;;
1414;SDS011;702;49.466;11.086;2022-08-19T06:09:35;31.13;;;28.20;;
1414;SDS011;702;49.466;11.086;2022-08-19T06:12:03;32.20;;;29.40;;
1414;SDS011;702;49.466;11.086;2022-08-19T06:14:32;32.17;;;29.27;;
1414;SDS011;702;49.466;11.086;2022-08-19T06:17:02;30.50;;;27.83;;
1414;SDS011;702;49.466;11.086;2022-08-19T06:19:31;29.03;;;26.30;;
1414;SDS011;702;49.466;11.086;2022-08-19T06:21:59;31.80;;;28.93;;
1414;SDS011;702;49.466;11.086;2022-08-19T06:24:27;30.93;;;27.97;;
1414;SDS011;702;49.466;11.086;2022-08-19T06:26:57;31.07;;;28.33;;
1414;SDS011;702;49.466;11.086;2022-08-19T06:29:26;30.40;;;27.70;;
1414;SDS011;702;49.466;11.086;2022-08-19T06:31:55;29.70;;;26.90;;
1414;SDS011;702;49.466;11.086;2022-08-19T06:34:26;29.27;;;26.50;;
1414;SDS011;702;49.466;11.086;2022-08-19T06:36:58;28.23;;;25.50;;
1414;SDS011;702;49.466;11.086;2022-08-19T06:39:27;26.33;;;23.93;;
1414;SDS011;702;49.466;11.086;2022-08-19T06:41:58;26.20;;;23.73;;
1414;SDS011;702;49.466;11.086;2022-08-19T06:44:29;24.40;;;22.40;;
1414;SDS011;702;49.466;11.086;2022-08-19T06:47:00;24.80;;;22.60;;
1414;SDS011;702;49.466;11.086;2022-08-19T06:49:29;26.47;;;24.17;;
1414;SDS011;702;49.466;11.086;2022-08-19T06:51:58;23.53;;;21.43;;
1414;SDS011;702;49.466;11.086;2022-08-19T06:54:27;22.67;;;20.77;;
1414;SDS011;702;49.466;11.086;2022-08-19T06:56:55;25.40;;;23.07;;
1414;SDS011;702;49.466;11.086;2022-08-19T06:59:23;24.43;;;22.13;;
1414;SDS011;702;49.466;11.086;2022-08-19T07:01:54;28.60;;;21.60;;
1414;SDS011;702;49.466;11.086;2022-08-19T07:04:24;20.50;;;18.47;;
1414;SDS011;702;49.466;11.086;2022-08-19T07:06:56;18.43;;;16.93;;
1414;SDS011;702;49.466;11.086;2022-08-19T07:09:27;18.30;;;16.90;;
1414;SDS011;702;49.466;11.086;2022-08-19T07:11:55;18.50;;;16.90;;
1414;SDS011;702;49.466;11.086;2022-08-19T07:14:23;17.03;;;15.63;;
1414;SDS011;702;49.466;11.086;2022-08-19T07:16:54;18.40;;;16.67;;
1414;SDS011;702;49.466;11.086;2022-08-19T07:19:24;17.40;;;15.87;;
1414;SDS011;702;49.466;11.086;2022-08-19T07:21:53;18.43;;;16.83;;
1414;SDS011;702;49.466;11.086;2022-08-19T07:24:24;19.17;;;17.57;;
1414;SDS011;702;49.466;11.086;2022-08-19T07:26:53;18.83;;;17.23;;
1414;SDS011;702;49.466;11.086;2022-08-19T07:29:26;20.47;;;18.67;;
1414;SDS011;702;49.466;11.086;2022-08-19T07:31:54;20.10;;;18.30;;
1414;SDS011;702;49.466;11.086;2022-08-19T07:34:24;21.10;;;19.40;;
1414;SDS011;702;49.466;11.086;2022-08-19T07:36:52;19.97;;;18.27;;
1414;SDS011;702;49.466;11.086;2022-08-19T07:39:21;20.47;;;18.70;;
1414;SDS011;702;49.466;11.086;2022-08-19T07:41:54;21.20;;;19.30;;
1414;SDS011;702;49.466;11.086;2022-08-19T07:44:25;20.37;;;18.77;;
1414;SDS011;702;49.466;11.086;2022-08-19T07:46:54;20.43;;;18.73;;
1414;SDS011;702;49.466;11.086;2022-08-19T07:49:23;20.47;;;18.63;;
1414;SDS011;702;49.466;11.086;2022-08-19T07:51:51;21.57;;;19.67;;
1414;SDS011;702;49.466;11.086;2022-08-19T07:54:23;20.30;;;18.53;;
1414;SDS011;702;49.466;11.086;2022-08-19T07:56:53;20.93;;;19.03;;
1414;SDS011;702;49.466;11.086;2022-08-19T07:59:21;20.63;;;18.83;;
1414;SDS011;702;49.466;11.086;2022-08-19T08:01:49;20.00;;;18.20;;
1414;SDS011;702;49.466;11.086;2022-08-19T08:04:18;20.40;;;18.63;;
1414;SDS011;702;49.466;11.086;2022-08-19T08:07:03;21.67;;;19.77;;
1414;SDS011;702;49.466;11.086;2022-08-19T08:09:50;21.97;;;19.97;;
1414;SDS011;702;49.466;11.086;2022-08-19T08:12:19;21.30;;;19.23;;
1414;SDS011;702;49.466;11.086;2022-08-19T08:14:54;21.07;;;19.20;;
1414;SDS011;702;49.466;11.086;2022-08-19T08:17:24;20.33;;;18.47;;
1414;SDS011;702;49.466;11.086;2022-08-19T08:19:54;21.63;;;19.77;;
1414;SDS011;702;49.466;11.086;2022-08-19T08:22:22;20.43;;;18.60;;
1414;SDS011;702;49.466;11.086;2022-08-19T08:25:10;20.50;;;18.70;;
1414;SDS011;702;49.466;11.086;2022-08-19T08:27:42;20.83;;;19.13;;
1414;SDS011;702;49.466;11.086;2022-08-19T08:30:14;20.87;;;19.00;;
1414;SDS011;702;49.466;11.086;2022-08-19T08:32:43;21.03;;;19.23;;
1414;SDS011;702;49.466;11.086;2022-08-19T08:35:12;20.57;;;18.77;;
1414;SDS011;702;49.466;11.086;2022-08-19T08:37:42;22.90;;;20.80;;
1414;SDS011;702;49.466;11.086;2022-08-19T08:40:14;21.97;;;20.10;;
1414;SDS011;702;49.466;11.086;2022-08-19T08:42:48;23.07;;;21.03;;
1414;SDS011;702;49.466;11.086;2022-08-19T08:45:23;21.27;;;19.37;;
1414;SDS011;702;49.466;11.086;2022-08-19T08:47:51;25.60;;;23.20;;
1414;SDS011;702;49.466;11.086;2022-08-19T08:50:25;29.40;;;26.53;;
1414;SDS011;702;49.466;11.086;2022-08-19T08:53:01;31.00;;;28.20;;
1414;SDS011;702;49.466;11.086;2022-08-19T08:55:32;32.07;;;29.03;;
1414;SDS011;702;49.466;11.086;2022-08-19T08:58:01;34.50;;;31.00;;
1414;SDS011;702;49.466;11.086;2022-08-19T09:00:33;32.03;;;28.27;;
1414;SDS011;702;49.466;11.086;2022-08-19T09:03:06;32.00;;;29.10;;
1414;SDS011;702;49.466;11.086;2022-08-19T09:05:41;32.03;;;28.80;;
1414;SDS011;702;49.466;11.086;2022-08-19T09:08:26;31.87;;;28.87;;
1414;SDS011;702;49.466;11.086;2022-08-19T09:11:09;32.57;;;29.27;;
1414;SDS011;702;49.466;11.086;2022-08-19T09:13:44;33.10;;;29.93;;
1414;SDS011;702;49.466;11.086;2022-08-19T09:16:25;31.60;;;28.30;;
1414;SDS011;702;49.466;11.086;2022-08-19T09:18:54;29.97;;;27.07;;
1414;SDS011;702;49.466;11.086;2022-08-19T09:21:33;31.67;;;28.60;;
1414;SDS011;702;49.466;11.086;2022-08-19T09:24:01;29.90;;;27.03;;
1414;SDS011;702;49.466;11.086;2022-08-19T09:26:31;29.90;;;27.10;;
1414;SDS011;702;49.466;11.086;2022-08-19T09:28:59;29.03;;;26.03;;
1414;SDS011;702;49.466;11.086;2022-08-19T09:31:28;27.93;;;25.10;;
1414;SDS011;702;49.466;11.086;2022-08-19T09:33:57;29.13;;;26.53;;
1414;SDS011;702;49.466;11.086;2022-08-19T09:36:27;28.60;;;25.90;;
1414;SDS011;702;49.466;11.086;2022-08-19T09:38:57;28.93;;;26.27;;
1414;SDS011;702;49.466;11.086;2022-08-19T09:41:26;28.03;;;25.53;;
1414;SDS011;702;49.466;11.086;2022-08-19T09:43:56;28.53;;;25.83;;
1414;SDS011;702;49.466;11.086;2022-08-19T09:46:25;27.37;;;24.80;;
1414;SDS011;702;49.466;11.086;2022-08-19T09:48:57;28.03;;;25.53;;
1414;SDS011;702;49.466;11.086;2022-08-19T09:51:26;28.40;;;25.90;;
1414;SDS011;702;49.466;11.086;2022-08-19T09:53:55;27.10;;;24.67;;
1414;SDS011;702;49.466;11.086;2022-08-19T09:56:27;27.23;;;24.43;;
1414;SDS011;702;49.466;11.086;2022-08-19T09:58:58;26.53;;;24.03;;
1414;SDS011;702;49.466;11.086;2022-08-19T10:01:27;29.33;;;26.50;;
1414;SDS011;702;49.466;11.086;2022-08-19T10:03:56;29.10;;;26.30;;
1414;SDS011;702;49.466;11.086;2022-08-19T10:06:27;30.63;;;25.80;;
1414;SDS011;702;49.466;11.086;2022-08-19T10:08:57;31.23;;;28.10;;
1414;SDS011;702;49.466;11.086;2022-08-19T10:11:25;28.20;;;25.30;;
1414;SDS011;702;49.466;11.086;2022-08-19T10:13:54;27.80;;;25.10;;
1414;SDS011;702;49.466;11.086;2022-08-19T10:16:23;29.03;;;26.30;;
1414;SDS011;702;49.466;11.086;2022-08-19T10:18:51;28.83;;;25.97;;
1414;SDS011;702;49.466;11.086;2022-08-19T10:21:20;27.67;;;25.07;;
1414;SDS011;702;49.466;11.086;2022-08-19T10:23:51;29.97;;;27.07;;
1414;SDS011;702;49.466;11.086;2022-08-19T10:26:22;30.03;;;27.20;;
1414;SDS011;702;49.466;11.086;2022-08-19T10:28:52;28.63;;;25.83;;
1414;SDS011;702;49.466;11.086;2022-08-19T10:31:20;29.33;;;26.43;;
1414;SDS011;702;49.466;11.086;2022-08-19T10:33:52;29.90;;;26.93;;
1414;SDS011;702;49.466;11.086;2022-08-19T10:36:26;28.20;;;25.50;;
1414;SDS011;702;49.466;11.086;2022-08-19T10:38:57;30.47;;;27.17;;
1414;SDS011;702;49.466;11.086;2022-08-19T10:41:27;27.53;;;25.13;;
1414;SDS011;702;49.466;11.086;2022-08-19T10:43:58;27.60;;;24.90;;
1414;SDS011;702;49.466;11.086;2022-08-19T10:46:29;26.07;;;23.57;;
1414;SDS011;702;49.466;11.086;2022-08-19T10:48:58;27.43;;;24.83;;
1414;SDS011;702;49.466;11.086;2022-08-19T10:51:26;27.03;;;24.53;;
1414;SDS011;702;49.466;11.086;2022-08-19T10:54:13;27.80;;;24.90;;
1414;SDS011;702;49.466;11.086;2022-08-19T10:56:40;27.90;;;25.20;;
1414;SDS011;702;49.466;11.086;2022-08-19T10:59:20;27.37;;;24.57;;
1414;SDS011;702;49.466;11.086;2022-08-19T11:01:58;28.03;;;25.53;;
1414;SDS011;702;49.466;11.086;2022-08-19T11:04:27;27.47;;;24.57;;
1414;SDS011;702;49.466;11.086;2022-08-19T11:06:54;27.13;;;24.53;;
1414;SDS011;702;49.466;11.086;2022-08-19T11:09:23;25.60;;;23.33;;
1414;SDS011;702;49.466;11.086;2022-08-19T11:11:52;27.40;;;24.80;;
1414;SDS011;702;49.466;11.086;2022-08-19T11:14:22;26.33;;;23.70;;
1414;SDS011;702;49.466;11.086;2022-08-19T11:16:51;25.70;;;23.40;;
1414;SDS011;702;49.466;11.086;2022-08-19T11:19:21;25.33;;;23.03;;
1414;SDS011;702;49.466;11.086;2022-08-19T11:21:49;24.80;;;22.60;;
1414;SDS011;702;49.466;11.086;2022-08-19T11:24:21;25.43;;;23.10;;
1414;SDS011;702;49.466;11.086;2022-08-19T11:26:51;25.63;;;23.13;;
1414;SDS011;702;49.466;11.086;2022-08-19T11:29:24;24.27;;;22.07;;
1414;SDS011;702;49.466;11.086;2022-08-19T11:31:54;23.83;;;21.40;;
1414;SDS011;702;49.466;11.086;2022-08-19T11:34:22;23.80;;;21.60;;
1414;SDS011;702;49.466;11.086;2022-08-19T11:36:52;24.93;;;22.63;;
1414;SDS011;702;49.466;11.086;2022-08-19T11:39:23;24.27;;;22.23;;
1414;SDS011;702;49.466;11.086;2022-08-19T11:41:53;24.63;;;22.20;;
1414;SDS011;702;49.466;11.086;2022-08-19T11:44:20;23.07;;;20.90;;
1414;SDS011;702;49.466;11.086;2022-08-19T11:46:47;24.50;;;22.33;;
1414;SDS011;702;49.466;11.086;2022-08-19T11:49:17;27.90;;;25.57;;
1414;SDS011;702;49.466;11.086;2022-08-19T11:51:46;26.83;;;24.57;;
1414;SDS011;702;49.466;11.086;2022-08-19T11:54:16;31.43;;;28.40;;
1414;SDS011;702;49.466;11.086;2022-08-19T11:56:44;30.27;;;27.47;;
1414;SDS011;702;49.466;11.086;2022-08-19T11:59:12;31.17;;;28.27;;
1414;SDS011;702;49.466;11.086;2022-08-19T12:01:40;31.03;;;28.03;;
1414;SDS011;702;49.466;11.086;2022-08-19T12:04:08;32.10;;;29.10;;
1414;SDS011;702;49.466;11.086;2022-08-19T12:06:38;31.03;;;28.13;;
1414;SDS011;702;49.466;11.086;2022-08-19T12:09:08;32.53;;;29.53;;
1414;SDS011;702;49.466;11.086;2022-08-19T12:11:36;30.97;;;28.10;;
1414;SDS011;702;49.466;11.086;2022-08-19T12:14:05;31.83;;;28.83;;
1414;SDS011;702;49.466;11.086;2022-08-19T12:16:37;31.10;;;28.27;;
1414;SDS011;702;49.466;11.086;2022-08-19T12:19:04;30.47;;;27.57;;
1414;SDS011;702;49.466;11.086;2022-08-19T12:21:33;30.33;;;27.50;;
1414;SDS011;702;49.466;11.086;2022-08-19T12:24:03;28.13;;;25.63;;
1414;SDS011;702;49.466;11.086;2022-08-19T12:26:32;32.13;;;29.10;;
1414;SDS011;702;49.466;11.086;2022-08-19T12:29:00;32.43;;;29.20;;
1414;SDS011;702;49.466;11.086;2022-08-19T12:31:28;31.17;;;28.27;;
1414;SDS011;702;49.466;11.086;2022-08-19T12:33:55;32.30;;;29.07;;
1414;SDS011;702;49.466;11.086;2022-08-19T12:36:24;32.50;;;29.40;;
1414;SDS011;702;49.466;11.086;2022-08-19T12:38:51;31.40;;;28.60;;
1414;SDS011;702;49.466;11.086;2022-08-19T12:41:20;32.30;;;29.17;;
1414;SDS011;702;49.466;11.086;2022-08-19T12:43:49;30.67;;;27.90;;
1414;SDS011;702;49.466;11.086;2022-08-19T12:46:16;31.67;;;28.87;;
1414;SDS011;702;49.466;11.086;2022-08-19T12:48:45;32.33;;;29.53;;
1414;SDS011;702;49.466;11.086;2022-08-19T12:51:15;33.10;;;30.20;;
1414;SDS011;702;49.466;11.086;2022-08-19T12:53:45;33.33;;;30.27;;
1414;SDS011;702;49.466;11.086;2022-08-19T12:56:12;33.93;;;30.70;;
1414;SDS011;702;49.466;11.086;2022-08-19T12:58:42;35.63;;;32.23;;
1414;SDS011;702;49.466;11.086;2022-08-19T13:01:10;35.27;;;31.90;;
1414;SDS011;702;49.466;11.086;2022-08-19T13:03:39;39.03;;;35.03;;
1414;SDS011;702;49.466;11.086;2022-08-19T13:06:08;41.30;;;37.30;;
1414;SDS011;702;49.466;11.086;2022-08-19T13:08:36;38.80;;;35.10;;
1414;SDS011;702;49.466;11.086;2022-08-19T13:11:08;42.00;;;37.90;;
1414;SDS011;702;49.466;11.086;2022-08-19T13:13:37;40.47;;;36.30;;
1414;SDS011;702;49.466;11.086;2022-08-19T13:16:08;42.03;;;37.83;;
1414;SDS011;702;49.466;11.086;2022-08-19T13:18:37;44.07;;;39.73;;
1414;SDS011;702;49.466;11.086;2022-08-19T13:21:05;41.03;;;37.00;;
1414;SDS011;702;49.466;11.086;2022-08-19T13:23:37;42.30;;;38.17;;
1414;SDS011;702;49.466;11.086;2022-08-19T13:26:05;43.67;;;38.90;;
1414;SDS011;702;49.466;11.086;2022-08-19T13:28:34;44.17;;;39.67;;
1414;SDS011;702;49.466;11.086;2022-08-19T13:31:21;44.10;;;39.57;;
1414;SDS011;702;49.466;11.086;2022-08-19T13:34:08;45.90;;;41.27;;
1414;SDS011;702;49.466;11.086;2022-08-19T13:36:36;45.13;;;40.60;;
1414;SDS011;702;49.466;11.086;2022-08-19T13:39:06;43.80;;;39.50;;
1414;SDS011;702;49.466;11.086;2022-08-19T13:41:34;42.73;;;38.43;;
1414;SDS011;702;49.466;11.086;2022-08-19T13:44:02;40.63;;;36.50;;
1414;SDS011;702;49.466;11.086;2022-08-19T13:46:33;40.10;;;36.37;;
1414;SDS011;702;49.466;11.086;2022-08-19T13:49:00;39.00;;;35.30;;
1414;SDS011;702;49.466;11.086;2022-08-19T13:51:27;40.50;;;36.63;;
1414;SDS011;702;49.466;11.086;2022-08-19T13:53:54;36.30;;;32.83;;
1414;SDS011;702;49.466;11.086;2022-08-19T13:56:22;38.40;;;34.53;;
1414;SDS011;702;49.466;11.086;2022-08-19T13:58:49;39.43;;;35.50;;
1414;SDS011;702;49.466;11.086;2022-08-19T14:01:19;37.50;;;34.27;;
1414;SDS011;702;49.466;11.086;2022-08-19T14:03:49;37.27;;;33.70;;
1414;SDS011;702;49.466;11.086;2022-08-19T14:06:17;37.10;;;33.40;;
1414;SDS011;702;49.466;11.086;2022-08-19T14:08:44;36.80;;;33.30;;
1414;SDS011;702;49.466;11.086;2022-08-19T14:11:12;39.60;;;35.90;;
1414;SDS011;702;49.466;11.086;2022-08-19T14:13:39;37.43;;;33.80;;
1414;SDS011;702;49.466;11.086;2022-08-19T14:16:08;41.17;;;37.00;;
1414;SDS011;702;49.466;11.086;2022-08-19T14:18:37;37.93;;;34.23;;
1414;SDS011;702;49.466;11.086;2022-08-19T14:21:06;31.80;;;28.90;;
1414;SDS011;702;49.466;11.086;2022-08-19T14:23:34;35.60;;;31.77;;
1414;SDS011;702;49.466;11.086;2022-08-19T14:26:06;30.07;;;27.27;;
1414;SDS011;702;49.466;11.086;2022-08-19T14:28:35;25.33;;;22.83;;
1414;SDS011;702;49.466;11.086;2022-08-19T14:31:02;20.90;;;18.70;;
1414;SDS011;702;49.466;11.086;2022-08-19T14:33:30;17.63;;;15.93;;
1414;SDS011;702;49.466;11.086;2022-08-19T14:35:58;18.90;;;16.10;;
1414;SDS011;702;49.466;11.086;2022-08-19T14:38:27;19.70;;;16.40;;
1414;SDS011;702;49.466;11.086;2022-08-19T14:41:05;21.23;;;19.13;;
1414;SDS011;702;49.466;11.086;2022-08-19T14:43:37;24.07;;;21.70;;
1414;SDS011;702;49.466;11.086;2022-08-19T14:46:05;25.70;;;23.23;;
1414;SDS011;702;49.466;11.086;2022-08-19T14:48:33;26.27;;;23.77;;
1414;SDS011;702;49.466;11.086;2022-08-19T14:51:01;28.57;;;25.87;;
1414;SDS011;702;49.466;11.086;2022-08-19T14:53:30;33.57;;;27.83;;
1414;SDS011;702;49.466;11.086;2022-08-19T14:55:59;30.40;;;27.40;;
1414;SDS011;702;49.466;11.086;2022-08-19T14:58:27;31.07;;;27.83;;
1414;SDS011;702;49.466;11.086;2022-08-19T15:00:54;31.03;;;27.83;;
1414;SDS011;702;49.466;11.086;2022-08-19T15:03:22;33.40;;;29.90;;